Time;durP1;ratioP1;P1;durP2;ratioP2;P2;SDS_P1;SDS_P2;PMS_P1;PMS_P2;Temp;Humidity;BMP_temperature;BMP_pressure;BME280_temperature;BME280_humidity;BME280_pressure;Samples;Min_cycle;Max_cycle;Signal;HPM_P1;HPM_P2
2022/09/29 00:01:08;;;;;;;3.58;2.92;;;17.70;99.90;;;;;;5093983;28;20072;-60
2022/09/29 00:03:34;;;;;;;3.35;2.90;;;17.80;99.90;;;;;;5093542;28;20051;-62
2022/09/29 00:06:00;;;;;;;3.55;2.88;;;17.80;99.90;;;;;;5093864;28;20036;-60
2022/09/29 00:08:28;;;;;;;2.95;2.65;;;17.80;99.90;;;;;;5093385;28;20420;-59
2022/09/29 00:10:54;;;;;;;3.58;2.83;;;17.80;99.90;;;;;;5093788;28;20050;-59
2022/09/29 00:13:21;;;;;;;3.85;2.85;;;17.70;99.90;;;;;;5093526;28;20090;-61
2022/09/29 00:15:57;;;;;;;3.55;3.22;;;17.80;99.90;;;;;;5093545;28;20109;-60
2022/09/29 00:18:24;;;;;;;3.97;3.15;;;17.70;99.90;;;;;;5093628;28;20023;-60
2022/09/29 00:20:57;;;;;;;4.38;2.85;;;17.70;99.90;;;;;;5093399;28;20017;-60
2022/09/29 00:23:23;;;;;;;;;;;17.70;99.90;;;;;;5094141;28;20020;-59
2022/09/29 00:26:05;;;;;;;5.03;3.70;;;17.70;99.90;;;;;;5093402;28;19904;-60
2022/09/29 00:28:33;;;;;;;6.68;4.00;;;17.60;99.90;;;;;;5093784;28;20440;-61
2022/09/29 00:31:00;;;;;;;3.53;3.05;;;17.50;99.90;;;;;;5093259;28;20032;-61
2022/09/29 00:33:29;;;;;;;3.80;3.38;;;17.40;99.90;;;;;;5093049;28;20063;-62
2022/09/29 00:36:04;;;;;;;5.05;3.20;;;17.40;99.90;;;;;;5093799;28;20421;-59
2022/09/29 00:38:30;;;;;;;3.42;3.13;;;17.50;99.90;;;;;;5095442;28;20102;-61
2022/09/29 00:40:57;;;;;;;4.65;3.33;;;17.50;99.90;;;;;;5097406;28;20024;-59
2022/09/29 00:43:44;;;;;;;7.07;3.47;;;17.50;99.90;;;;;;5097473;28;20081;-61
2022/09/29 00:46:11;;;;;;;3.45;3.00;;;17.40;99.90;;;;;;5096283;28;20036;-61
2022/09/29 00:48:38;;;;;;;5.18;3.30;;;17.40;99.90;;;;;;5097174;28;20012;-61
2022/09/29 00:51:04;;;;;;;3.30;2.55;;;17.40;99.90;;;;;;5097194;28;20024;-61
2022/09/29 00:53:31;;;;;;;4.03;2.80;;;17.40;99.90;;;;;;5097205;28;20020;-62
2022/09/29 00:56:04;;;;;;;5.75;3.30;;;17.40;99.90;;;;;;5097209;28;20013;-61
2022/09/29 00:58:55;;;;;;;3.67;2.92;;;17.30;99.90;;;;;;5097116;28;20390;-61
2022/09/29 01:01:27;;;;;;;4.28;2.58;;;17.20;99.90;;;;;;5097076;28;20454;-60
2022/09/29 01:04:16;;;;;;;3.50;2.40;;;17.10;99.90;;;;;;5097080;28;20024;-59
2022/09/29 01:06:46;;;;;;;4.00;2.08;;;17.20;99.90;;;;;;5096646;28;20089;-62
2022/09/29 01:09:18;;;;;;;3.22;1.90;;;17.20;99.90;;;;;;5096714;28;20044;-60
2022/09/29 01:11:44;;;;;;;2.08;1.88;;;17.30;99.90;;;;;;5097159;28;20042;-59
2022/09/29 01:14:10;;;;;;;4.00;1.98;;;17.40;99.90;;;;;;5097024;28;20024;-59
2022/09/29 01:16:38;;;;;;;2.00;1.75;;;17.30;99.90;;;;;;5096581;28;20028;-61
2022/09/29 01:19:25;;;;;;;2.22;2.00;;;17.30;99.90;;;;;;5097110;28;20028;-62
2022/09/29 01:22:29;;;;;;;4.80;2.88;;;17.30;99.90;;;;;;5096789;28;20035;-60
2022/09/29 01:24:57;;;;;;;3.95;2.70;;;17.30;99.90;;;;;;5095339;28;20446;-61
2022/09/29 01:27:47;;;;;;;4.32;2.70;;;17.10;99.90;;;;;;5096659;28;20387;-61
2022/09/29 01:30:22;;;;;;;2.65;2.22;;;16.90;99.90;;;;;;5096235;28;20032;-59
2022/09/29 01:32:56;;;;;;;2.22;2.03;;;17.00;99.90;;;;;;5096535;28;20077;-62
2022/09/29 01:35:44;;;;;;;2.58;1.60;;;17.10;99.90;;;;;;5096810;28;20044;-61
2022/09/29 01:38:37;;;;;;;3.25;2.17;;;17.20;99.90;;;;;;5096461;28;20435;-59
2022/09/29 01:41:57;;;;;;;3.00;1.93;;;17.30;99.90;;;;;;5096454;28;20056;-61
2022/09/29 01:45:03;;;;;;;4.78;3.17;;;17.30;99.90;;;;;;5094421;28;20268;-61
2022/09/29 01:47:39;;;;;;;4.72;2.70;;;17.20;99.90;;;;;;5096259;28;20023;-61
2022/09/29 01:50:22;;;;;;;4.78;2.78;;;17.10;99.90;;;;;;5095022;28;20043;-59
2022/09/29 01:52:54;;;;;;;4.47;2.30;;;17.10;99.90;;;;;;5096148;28;20466;-61
2022/09/29 01:55:25;;;;;;;3.47;2.30;;;17.10;99.90;;;;;;5096136;28;20051;-59
2022/09/29 01:58:01;;;;;;;4.15;2.50;;;17.20;99.90;;;;;;5096040;28;20115;-62
2022/09/29 02:00:31;;;;;;;3.30;2.20;;;17.20;99.90;;;;;;5095919;28;20031;-60
2022/09/29 02:03:23;;;;;;;3.42;2.35;;;17.10;99.90;;;;;;5095937;28;20081;-62
2022/09/29 02:06:07;;;;;;;5.00;2.53;;;17.20;99.90;;;;;;5095901;28;20547;-62
2022/09/29 02:08:42;;;;;;;2.53;2.20;;;17.20;99.90;;;;;;5095964;28;20020;-60
2022/09/29 02:11:12;;;;;;;3.13;2.00;;;17.10;99.90;;;;;;5095730;28;20153;-59
2022/09/29 02:13:47;;;;;;;2.85;1.90;;;17.10;99.90;;;;;;5095749;28;20081;-60
2022/09/29 02:16:16;;;;;;;2.55;1.90;;;17.20;99.90;;;;;;5095790;28;20027;-62
2022/09/29 02:18:51;;;;;;;3.65;1.95;;;17.20;99.90;;;;;;5095527;28;20501;-60
2022/09/29 02:21:17;;;;;;;2.45;2.00;;;17.30;99.90;;;;;;5095723;28;20027;-61
2022/09/29 02:23:43;;;;;;;2.10;1.60;;;17.20;99.90;;;;;;5095503;28;20020;-59
2022/09/29 02:26:11;;;;;;;2.30;1.90;;;17.20;99.90;;;;;;5095483;28;20040;-59
2022/09/29 02:28:37;;;;;;;3.70;2.60;;;17.20;99.90;;;;;;5095292;28;20091;-61
2022/09/29 02:31:04;;;;;;;3.03;2.70;;;17.20;99.90;;;;;;5095323;28;20028;-59
2022/09/29 02:33:29;;;;;;;4.05;2.55;;;17.20;99.90;;;;;;5095578;28;20054;-61
2022/09/29 02:35:58;;;;;;;4.13;2.83;;;17.20;99.90;;;;;;5095619;28;20434;-59
2022/09/29 02:38:46;;;;;;;3.05;2.40;;;17.20;99.90;;;;;;5095270;28;20027;-61
2022/09/29 02:41:15;;;;;;;5.03;3.50;;;17.20;99.90;;;;;;5095255;28;20387;-59
2022/09/29 02:43:54;;;;;;;3.75;2.92;;;17.10;99.90;;;;;;5095026;28;20443;-61
2022/09/29 02:46:45;;;;;;;3.60;2.80;;;17.10;99.90;;;;;;5095073;28;20105;-61
2022/09/29 02:49:14;;;;;;;4.65;2.40;;;17.10;99.90;;;;;;5094982;28;20035;-61
2022/09/29 02:51:45;;;;;;;2.53;2.30;;;17.10;99.90;;;;;;5095181;28;20032;-59
2022/09/29 02:54:32;;;;;;;3.08;2.20;;;17.10;99.90;;;;;;5094914;28;20020;-60
2022/09/29 02:57:17;;;;;;;5.00;2.47;;;17.10;99.90;;;;;;5094939;28;20474;-60
2022/09/29 03:00:14;;;;;;;3.47;1.90;;;17.00;99.90;;;;;;5094566;28;20032;-59
2022/09/29 03:02:41;;;;;;;3.10;1.50;;;16.90;99.90;;;;;;5094494;28;20035;-61
2022/09/29 03:05:25;;;;;;;2.80;1.48;;;17.00;99.90;;;;;;5094953;28;20020;-59
2022/09/29 03:07:51;;;;;;;4.13;2.17;;;17.00;99.90;;;;;;5095046;28;20024;-59
2022/09/29 03:10:17;;;;;;;3.75;1.90;;;17.00;99.90;;;;;;5094287;28;20125;-61
2022/09/29 03:12:42;;;;;;;2.35;1.95;;;17.00;99.90;;;;;;5094729;28;20019;-59
2022/09/29 03:15:11;;;;;;;2.05;1.50;;;17.00;99.90;;;;;;5094840;28;20094;-59
2022/09/29 03:17:37;;;;;;;3.08;2.03;;;17.00;99.90;;;;;;5094372;28;20489;-60
2022/09/29 03:20:04;;;;;;;2.17;1.48;;;17.00;99.90;;;;;;5094514;28;20032;-62
2022/09/29 03:22:29;;;;;;;1.98;1.60;;;17.00;99.90;;;;;;5094399;28;20054;-62
2022/09/29 03:24:55;;;;;;;3.75;2.20;;;17.00;99.90;;;;;;5094390;28;20024;-61
2022/09/29 03:27:21;;;;;;;2.20;1.80;;;16.90;99.90;;;;;;5094433;28;20024;-62
2022/09/29 03:29:47;;;;;;;2.25;1.60;;;16.80;99.90;;;;;;5094258;28;20119;-59
2022/09/29 03:32:12;;;;;;;1.95;1.25;;;16.70;99.90;;;;;;5094236;28;20020;-61
2022/09/29 03:34:38;;;;;;;1.58;1.45;;;16.80;99.90;;;;;;5094087;28;20021;-60
2022/09/29 03:37:04;;;;;;;1.60;1.25;;;16.90;99.90;;;;;;5094301;28;20035;-59
2022/09/29 03:39:29;;;;;;;2.42;1.40;;;17.00;99.90;;;;;;5094400;28;20024;-61
2022/09/29 03:41:55;;;;;;;3.25;1.63;;;17.00;99.90;;;;;;5093897;28;20406;-62
2022/09/29 03:44:21;;;;;;;2.85;1.50;;;17.00;99.90;;;;;;5094024;28;20024;-60
2022/09/29 03:46:46;;;;;;;1.88;1.17;;;17.00;99.90;;;;;;5094215;28;20024;-59
2022/09/29 03:49:16;;;;;;;2.67;1.17;;;17.00;99.90;;;;;;5093861;28;20039;-61
2022/09/29 03:51:43;;;;;;;1.30;1.08;;;17.00;99.90;;;;;;5093930;28;20130;-62
2022/09/29 03:54:09;;;;;;;2.55;0.82;;;16.90;99.90;;;;;;5093969;28;20020;-58
2022/09/29 03:56:36;;;;;;;2.33;1.13;;;17.00;99.90;;;;;;5093535;28;20021;-59
2022/09/29 03:59:04;;;;;;;2.45;1.35;;;16.90;99.90;;;;;;5094060;28;20035;-59
2022/09/29 04:01:30;;;;;;;2.97;1.30;;;16.90;99.90;;;;;;5093832;28;20032;-61
2022/09/29 04:03:57;;;;;;;1.23;1.10;;;16.90;99.90;;;;;;5093986;28;20378;-60
2022/09/29 04:06:23;;;;;;;2.20;1.15;;;17.00;99.90;;;;;;5094011;28;20024;-62
2022/09/29 04:08:49;;;;;;;1.60;0.77;;;17.00;99.90;;;;;;5093393;28;20097;-59
2022/09/29 04:11:14;;;;;;;1.83;1.00;;;16.90;99.90;;;;;;5093256;28;20032;-61
2022/09/29 04:13:40;;;;;;;2.10;0.80;;;17.00;99.90;;;;;;5092924;28;20412;-61
2022/09/29 04:16:06;;;;;;;1.88;1.00;;;17.00;99.90;;;;;;5093835;28;20020;-60
2022/09/29 04:18:32;;;;;;;1.70;0.98;;;17.00;99.90;;;;;;5093583;28;20415;-60
2022/09/29 04:20:59;;;;;;;2.35;1.10;;;16.90;99.90;;;;;;5093665;28;20116;-60
2022/09/29 04:23:29;;;;;;;5.72;1.55;;;16.90;99.90;;;;;;5093731;28;20067;-62
2022/09/29 04:25:55;;;;;;;1.98;1.30;;;16.80;99.90;;;;;;5093266;28;20385;-60
2022/09/29 04:28:21;;;;;;;3.08;1.23;;;16.90;99.90;;;;;;5093284;28;20482;-59
2022/09/29 04:30:47;;;;;;;2.63;1.38;;;16.90;99.90;;;;;;5093590;28;20409;-61
2022/09/29 04:33:13;;;;;;;1.98;1.05;;;16.90;99.90;;;;;;5093381;28;20084;-61
2022/09/29 04:35:38;;;;;;;3.58;1.20;;;16.90;99.90;;;;;;5093276;28;20487;-60
2022/09/29 04:38:06;;;;;;;2.75;1.50;;;16.90;99.90;;;;;;5093592;28;20023;-61
2022/09/29 04:40:32;;;;;;;2.85;1.60;;;16.90;99.90;;;;;;5093199;28;20423;-61
2022/09/29 04:42:58;;;;;;;3.13;1.48;;;16.90;99.90;;;;;;5093204;28;20401;-59
2022/09/29 04:45:23;;;;;;;4.43;2.00;;;16.70;99.90;;;;;;5093356;28;20020;-61
2022/09/29 04:47:49;;;;;;;2.90;1.95;;;16.70;99.90;;;;;;5093354;28;20031;-61
2022/09/29 04:50:15;;;;;;;2.40;2.05;;;16.70;99.90;;;;;;5093077;28;20047;-60
2022/09/29 04:52:42;;;;;;;3.22;2.92;;;16.70;99.90;;;;;;5093243;28;20551;-59
2022/09/29 04:55:10;;;;;;;3.35;3.05;;;16.60;99.90;;;;;;5078987;28;20077;-60
2022/09/29 04:57:36;;;;;;;6.15;3.50;;;16.60;99.90;;;;;;5081567;28;20040;-62
2022/09/29 05:00:04;;;;;;;5.97;3.70;;;16.50;99.90;;;;;;5080561;28;20032;-60
2022/09/29 05:02:29;;;;;;;5.15;3.05;;;16.20;99.90;;;;;;5074838;28;20031;-60
2022/09/29 05:04:55;;;;;;;5.95;2.80;;;16.20;99.90;;;;;;5090033;28;20020;-59
2022/09/29 05:07:21;;;;;;;4.30;2.88;;;16.20;99.90;;;;;;5073018;28;20028;-59
2022/09/29 05:09:47;;;;;;;3.55;2.45;;;16.30;99.90;;;;;;5072638;28;20101;-60
2022/09/29 05:12:12;;;;;;;3.30;2.30;;;16.30;99.90;;;;;;5089502;28;20432;-60
2022/09/29 05:14:38;;;;;;;3.40;2.25;;;16.50;99.90;;;;;;5092275;28;20020;-60
2022/09/29 05:17:04;;;;;;;2.72;1.83;;;16.60;99.90;;;;;;5093010;28;20028;-60
2022/09/29 05:19:31;;;;;;;3.30;2.10;;;16.60;99.90;;;;;;5092959;28;20031;-60
2022/09/29 05:22:00;;;;;;;2.30;1.98;;;16.70;99.90;;;;;;5078392;28;20098;-59
2022/09/29 05:24:26;;;;;;;4.03;2.33;;;16.80;99.90;;;;;;5090866;28;20020;-60
2022/09/29 05:26:52;;;;;;;3.75;2.00;;;16.80;99.90;;;;;;5094988;28;20031;-60
2022/09/29 05:29:18;;;;;;;2.75;1.80;;;16.90;99.90;;;;;;5093441;28;20058;-60
2022/09/29 05:31:44;;;;;;;3.13;1.90;;;16.90;99.90;;;;;;5095502;28;20158;-60
2022/09/29 05:34:10;;;;;;;3.17;1.90;;;17.00;99.90;;;;;;5086616;28;20035;-59
2022/09/29 05:36:35;;;;;;;1.85;1.60;;;17.00;99.90;;;;;;5080525;28;20032;-59
2022/09/29 05:39:01;;;;;;;2.47;2.13;;;17.10;99.90;;;;;;5090446;28;20024;-61
2022/09/29 05:41:27;;;;;;;2.28;1.88;;;17.20;99.90;;;;;;5078445;28;20402;-59
2022/09/29 05:43:54;;;;;;;4.07;2.65;;;17.20;99.90;;;;;;5084756;28;20024;-60
2022/09/29 05:46:21;;;;;;;4.57;3.00;;;17.20;99.90;;;;;;5078949;28;20516;-59
2022/09/29 05:48:48;;;;;;;4.50;2.45;;;17.30;99.90;;;;;;5082150;28;20533;-61
2022/09/29 05:51:16;;;;;;;3.55;2.67;;;17.30;99.90;;;;;;5085418;28;20673;-60
2022/09/29 05:53:42;;;;;;;3.45;2.75;;;17.30;99.90;;;;;;5094771;28;20027;-60
2022/09/29 05:56:10;;;;;;;3.83;2.50;;;17.30;99.90;;;;;;5093958;28;20705;-61
2022/09/29 05:58:37;;;;;;;7.85;3.72;;;17.40;99.90;;;;;;5093690;28;20042;-61
2022/09/29 06:01:12;;;;;;;5.32;3.30;;;17.40;99.90;;;;;;5092404;28;20043;-60
2022/09/29 06:03:38;;;;;;;5.05;3.08;;;17.40;99.90;;;;;;5084933;28;20028;-61
2022/09/29 06:06:05;;;;;;;4.10;3.13;;;17.50;99.90;;;;;;5083339;28;20144;-61
2022/09/29 06:08:31;;;;;;;5.78;3.85;;;17.50;99.90;;;;;;5080683;28;20383;-61
2022/09/29 06:11:08;;;;;;;5.25;4.22;;;17.60;99.90;;;;;;5074955;28;20043;-61
2022/09/29 06:13:37;;;;;;;6.22;4.07;;;17.50;99.90;;;;;;5088231;28;20374;-60
2022/09/29 06:16:03;;;;;;;6.57;4.00;;;17.60;99.90;;;;;;5095638;28;20025;-60
2022/09/29 06:18:29;;;;;;;6.63;4.63;;;17.70;99.90;;;;;;5094745;28;20027;-60
2022/09/29 06:21:10;;;;;;;4.85;3.08;;;17.70;99.90;;;;;;5087773;28;20103;-60
2022/09/29 06:23:36;;;;;;;5.97;3.33;;;17.70;99.90;;;;;;5084103;28;20024;-60
2022/09/29 06:26:04;;;;;;;5.22;3.05;;;17.70;99.90;;;;;;5088762;28;20043;-60
2022/09/29 06:28:31;;;;;;;5.65;3.42;;;17.70;99.90;;;;;;5090048;28;20020;-60
2022/09/29 06:31:12;;;;;;;2.60;2.33;;;17.70;99.90;;;;;;5087113;28;20085;-60
2022/09/29 06:33:38;;;;;;;2.70;2.17;;;17.80;99.90;;;;;;5074646;28;20028;-60
2022/09/29 06:39:06;;;;;;;2.85;2.25;;;18.00;99.90;;;;;;5080774;28;20097;-60
2022/09/29 06:41:31;;;;;;;3.47;2.67;;;18.20;99.90;;;;;;5073219;28;20020;-60
2022/09/29 06:43:57;;;;;;;2.00;1.65;;;18.30;99.90;;;;;;5083123;28;20093;-60
2022/09/29 06:46:25;;;;;;;2.80;2.50;;;18.40;99.90;;;;;;5093387;28;20077;-60
2022/09/29 06:48:52;;;;;;;2.58;2.38;;;18.50;99.90;;;;;;5094455;28;20028;-60
2022/09/29 06:51:21;;;;;;;3.13;2.45;;;18.60;99.90;;;;;;5076055;28;20025;-61
2022/09/29 06:53:52;;;;;;;4.28;3.00;;;18.80;99.90;;;;;;5084778;28;20028;-61
2022/09/29 06:56:18;;;;;;;2.83;2.53;;;18.90;99.90;;;;;;5083201;28;20036;-64
2022/09/29 06:58:45;;;;;;;3.05;2.13;;;19.20;99.90;;;;;;5083920;28;20091;-62
2022/09/29 07:01:11;;;;;;;4.15;2.50;;;19.50;99.90;;;;;;5089754;28;20027;-61
2022/09/29 07:03:38;;;;;;;2.50;2.30;;;19.60;99.90;;;;;;5088582;28;20036;-62
2022/09/29 07:06:05;;;;;;;3.88;2.38;;;19.50;99.90;;;;;;5088658;28;20038;-64
2022/09/29 07:08:34;;;;;;;3.75;2.75;;;19.50;99.90;;;;;;5083049;28;20028;-63
2022/09/29 07:10:59;;;;;;;3.25;2.55;;;19.40;99.90;;;;;;5077938;28;20044;-63
2022/09/29 07:13:26;;;;;;;2.45;2.25;;;19.40;99.90;;;;;;5086325;28;20505;-61
2022/09/29 07:15:53;;;;;;;4.90;3.63;;;19.40;99.90;;;;;;5090523;28;20323;-62
2022/09/29 07:18:19;;;;;;;3.88;3.10;;;19.50;99.90;;;;;;5089301;28;20046;-61
2022/09/29 07:20:45;;;;;;;3.28;2.50;;;19.50;99.90;;;;;;5072638;28;20112;-62
2022/09/29 07:23:10;;;;;;;3.15;2.72;;;19.50;99.90;;;;;;5078335;28;20033;-61
2022/09/29 07:25:36;;;;;;;3.00;2.78;;;19.60;99.90;;;;;;5082747;28;20031;-61
2022/09/29 07:28:02;;;;;;;4.03;2.85;;;19.60;99.90;;;;;;5072320;28;20424;-63
2022/09/29 07:30:28;;;;;;;5.00;2.80;;;19.70;99.90;;;;;;5071713;28;20033;-61
2022/09/29 07:32:54;;;;;;;3.42;2.88;;;20.80;99.90;;;;;;5077312;28;20078;-62
2022/09/29 07:35:23;;;;;;;3.30;2.40;;;23.90;99.90;;;;;;5082069;28;20529;-61
2022/09/29 07:37:55;;;;;;;3.15;2.85;;;26.40;96.20;;;;;;5085165;28;22364;-61
2022/09/29 07:40:22;;;;;;;7.57;4.88;;;27.70;85.40;;;;;;5082663;28;20035;-61
2022/09/29 07:42:48;;;;;;;4.32;4.03;;;28.70;76.00;;;;;;5089536;28;20505;-62
2022/09/29 07:45:17;;;;;;;4.90;4.10;;;30.60;70.40;;;;;;5087692;28;20032;-61
2022/09/29 07:47:43;;;;;;;4.63;4.05;;;31.80;62.50;;;;;;5089987;28;20033;-60
2022/09/29 07:50:09;;;;;;;4.60;3.53;;;32.90;56.60;;;;;;5092820;28;20027;-62
2022/09/29 07:52:34;;;;;;;3.97;3.30;;;33.40;53.60;;;;;;5084968;28;20093;-63
2022/09/29 07:55:01;;;;;;;3.70;3.20;;;33.60;53.20;;;;;;5077099;28;20577;-61
2022/09/29 07:57:27;;;;;;;3.20;2.90;;;34.20;51.60;;;;;;5084369;28;20038;-61
2022/09/29 07:59:53;;;;;;;3.08;2.78;;;34.80;50.50;;;;;;5074184;28;20020;-61
2022/09/29 08:02:19;;;;;;;2.72;2.50;;;35.20;48.20;;;;;;5068683;28;20039;-61
2022/09/29 08:04:45;;;;;;;3.47;2.40;;;34.50;48.90;;;;;;5083441;28;20085;-62
2022/09/29 08:07:11;;;;;;;2.90;2.00;;;35.00;48.10;;;;;;5073065;28;20494;-62
2022/09/29 08:09:43;;;;;;;2.63;2.13;;;35.10;47.90;;;;;;5087542;28;20071;-63
2022/09/29 08:12:08;;;;;;;3.75;2.45;;;35.80;47.60;;;;;;5089255;28;20043;-63
2022/09/29 08:14:36;;;;;;;3.08;2.10;;;35.70;44.50;;;;;;5078272;28;20024;-61
2022/09/29 08:17:02;;;;;;;6.82;2.90;;;34.70;47.70;;;;;;5090080;28;20024;-62
2022/09/29 08:19:28;;;;;;;2.30;2.10;;;34.60;46.80;;;;;;5088538;28;20020;-61
2022/09/29 08:21:53;;;;;;;2.90;2.10;;;34.90;47.80;;;;;;5084171;28;20375;-62
2022/09/29 08:24:19;;;;;;;1.77;1.63;;;35.00;47.10;;;;;;5074758;28;20032;-61
2022/09/29 08:26:44;;;;;;;1.90;1.40;;;34.50;46.40;;;;;;5089918;28;20028;-61
2022/09/29 08:29:13;;;;;;;1.42;1.30;;;34.50;46.70;;;;;;5086086;28;20024;-62
2022/09/29 08:31:39;;;;;;;2.17;1.73;;;34.80;45.80;;;;;;5089102;28;20516;-61
2022/09/29 08:34:05;;;;;;;2.05;1.75;;;35.50;45.20;;;;;;5089377;28;20024;-62
2022/09/29 08:36:32;;;;;;;1.98;1.58;;;35.70;44.20;;;;;;5089471;28;20022;-61
2022/09/29 08:38:58;;;;;;;2.30;1.23;;;34.30;44.30;;;;;;5082883;28;20029;-62
2022/09/29 08:41:35;;;;;;;4.82;0.90;;;32.40;46.30;;;;;;5083158;28;20024;-63
2022/09/29 08:44:13;;;;;;;1.63;1.10;;;31.00;43.60;;;;;;5081675;28;20428;-61
2022/09/29 08:46:46;;;;;;;1.08;0.98;;;29.90;48.80;;;;;;5080752;28;20107;-63
2022/09/29 08:49:38;;;;;;;0.50;0.50;;;29.50;47.50;;;;;;5076451;28;20029;-61
2022/09/29 08:52:25;;;;;;;1.33;0.52;;;28.40;48.20;;;;;;5078245;28;20032;-63
2022/09/29 08:54:57;;;;;;;0.93;0.60;;;27.60;48.60;;;;;;5079514;28;20474;-62
2022/09/29 08:57:24;;;;;;;1.60;0.95;;;27.20;50.20;;;;;;5082087;28;20031;-65
2022/09/29 08:59:55;;;;;;;2.15;0.68;;;27.00;52.10;;;;;;5086891;28;20032;-62
2022/09/29 09:02:30;;;;;;;1.73;0.63;;;27.00;51.20;;;;;;5088413;28;20028;-63
2022/09/29 09:05:11;;;;;;;1.90;0.57;;;26.70;50.10;;;;;;5089338;28;20024;-64
2022/09/29 09:07:45;;;;;;;1.52;0.70;;;26.30;52.70;;;;;;5087364;28;20055;-62
2022/09/29 09:10:35;;;;;;;0.77;0.50;;;26.30;52.80;;;;;;5089352;28;20047;-63
2022/09/29 09:13:12;;;;;;;1.15;0.73;;;26.30;54.80;;;;;;5078602;28;20024;-62
2022/09/29 09:15:44;;;;;;;1.98;0.60;;;26.30;52.90;;;;;;5080360;28;20040;-63
2022/09/29 09:18:34;;;;;;;0.85;0.60;;;26.20;53.50;;;;;;5083134;28;20054;-61
2022/09/29 09:21:09;;;;;;;1.30;0.60;;;25.90;51.30;;;;;;5080181;28;20454;-64
2022/09/29 09:23:40;;;;;;;0.90;0.60;;;25.90;52.80;;;;;;5078348;28;20107;-62
2022/09/29 09:26:09;;;;;;;0.90;0.57;;;26.30;52.40;;;;;;5084555;28;20028;-60
2022/09/29 09:28:54;;;;;;;1.83;0.55;;;26.70;52.20;;;;;;5090588;28;20543;-62
2022/09/29 09:31:29;;;;;;;2.15;0.70;;;26.70;52.20;;;;;;5085540;28;20056;-61
2022/09/29 09:34:09;;;;;;;1.27;0.60;;;27.20;51.20;;;;;;5086864;28;20478;-64
2022/09/29 09:36:42;;;;;;;1.17;0.47;;;27.30;49.40;;;;;;5091303;28;20024;-63
2022/09/29 09:39:31;;;;;;;2.13;0.70;;;27.40;50.70;;;;;;5083537;28;20059;-62
2022/09/29 09:41:59;;;;;;;0.90;0.50;;;27.90;49.80;;;;;;5083170;28;20181;-61
2022/09/29 09:44:38;;;;;;;1.17;0.60;;;28.10;50.50;;;;;;5085010;28;20276;-62
2022/09/29 09:47:27;;;;;;;2.13;0.80;;;28.50;50.80;;;;;;5082351;28;20032;-62
2022/09/29 09:49:59;;;;;;;0.93;0.40;;;28.80;50.10;;;;;;5088375;28;20277;-61
2022/09/29 09:52:39;;;;;;;3.28;0.80;;;29.30;50.50;;;;;;5083233;28;20391;-61
2022/09/29 09:55:09;;;;;;;0.80;0.50;;;29.20;48.50;;;;;;5073310;28;20023;-61
2022/09/29 09:58:24;;;;;;;1.67;0.50;;;29.00;48.30;;;;;;5083715;28;20468;-61
2022/09/29 10:01:11;;;;;;;1.08;0.60;;;29.40;50.00;;;;;;5089135;28;20039;-62
2022/09/29 10:03:37;;;;;;;1.42;0.80;;;29.40;46.50;;;;;;5086467;28;20032;-61
2022/09/29 10:06:06;;;;;;;2.38;0.98;;;29.40;46.70;;;;;;5071155;28;20116;-61
2022/09/29 10:08:38;;;;;;;1.80;0.70;;;29.50;46.70;;;;;;5072672;28;20048;-63
2022/09/29 10:11:30;;;;;;;2.03;0.80;;;29.80;48.00;;;;;;5071562;28;20029;-64
2022/09/29 10:14:03;;;;;;;2.35;0.80;;;30.30;47.10;;;;;;5088868;28;20024;-61
2022/09/29 10:16:42;;;;;;;1.08;0.50;;;30.30;47.30;;;;;;5079427;28;20370;-60
2022/09/29 10:19:09;;;;;;;1.10;0.60;;;30.60;46.20;;;;;;5084300;28;20024;-62
2022/09/29 10:21:39;;;;;;;0.95;0.43;;;30.70;45.20;;;;;;5085027;28;20027;-63
2022/09/29 10:24:32;;;;;;;1.48;0.60;;;30.60;44.00;;;;;;5083172;28;20032;-62
2022/09/29 10:27:00;;;;;;;0.80;0.50;;;30.20;43.80;;;;;;5093065;28;20020;-62
2022/09/29 10:29:38;;;;;;;3.83;1.08;;;30.00;43.10;;;;;;5092883;28;20024;-60
2022/09/29 10:32:08;;;;;;;2.33;0.73;;;30.10;44.10;;;;;;5094336;28;20028;-63
2022/09/29 10:34:53;;;;;;;0.85;0.40;;;30.00;42.70;;;;;;5094796;28;20032;-61
2022/09/29 10:37:34;;;;;;;1.38;0.50;;;30.00;44.70;;;;;;5095320;28;20020;-62
2022/09/29 10:40:09;;;;;;;0.73;0.40;;;30.30;43.90;;;;;;5092839;28;20017;-61
2022/09/29 10:42:37;;;;;;;1.00;0.47;;;30.20;43.80;;;;;;5082031;28;20036;-63
2022/09/29 10:45:26;;;;;;;0.95;0.43;;;30.20;43.30;;;;;;5077449;28;20029;-60
2022/09/29 10:48:13;;;;;;;0.73;0.35;;;30.60;42.70;;;;;;5092962;28;20493;-62
2022/09/29 10:50:52;;;;;;;1.60;0.50;;;31.10;44.00;;;;;;5082459;28;20041;-62
2022/09/29 10:53:38;;;;;;;1.45;0.65;;;31.40;43.10;;;;;;5079412;28;20017;-63
2022/09/29 10:56:17;;;;;;;0.73;0.30;;;31.70;44.60;;;;;;5078467;28;20051;-61
2022/09/29 10:58:53;;;;;;;1.23;0.50;;;31.60;45.60;;;;;;5092410;28;20103;-61
2022/09/29 11:01:20;;;;;;;0.77;0.52;;;31.90;43.30;;;;;;5092859;28;20408;-60
2022/09/29 11:03:49;;;;;;;1.80;0.60;;;32.00;44.40;;;;;;5091627;28;20020;-63
2022/09/29 11:06:15;;;;;;;1.20;0.50;;;32.50;43.00;;;;;;5090930;28;20024;-63
2022/09/29 11:09:16;;;;;;;1.58;0.60;;;32.40;44.10;;;;;;5085364;28;20028;-63
2022/09/29 11:11:48;;;;;;;0.95;0.85;;;32.60;40.90;;;;;;5078929;28;20041;-63
2022/09/29 11:14:30;;;;;;;0.73;0.50;;;32.60;41.20;;;;;;5071875;28;20036;-60
2022/09/29 11:16:59;;;;;;;0.50;0.30;;;32.40;39.70;;;;;;5075028;28;20036;-62
2022/09/29 11:19:26;;;;;;;1.00;0.40;;;32.30;39.50;;;;;;5086464;28;20028;-61
2022/09/29 11:21:58;;;;;;;0.77;0.50;;;32.20;39.90;;;;;;5093415;28;20466;-63
2022/09/29 11:24:29;;;;;;;1.55;0.50;;;32.00;40.10;;;;;;5093729;28;20028;-61
2022/09/29 11:27:05;;;;;;;0.63;0.40;;;32.20;40.70;;;;;;5080696;28;20094;-60
2022/09/29 11:29:43;;;;;;;0.70;0.50;;;32.20;39.30;;;;;;5080814;28;20020;-60
2022/09/29 11:32:51;;;;;;;0.47;0.40;;;32.20;40.20;;;;;;5091888;28;20047;-60
2022/09/29 11:35:43;;;;;;;0.93;0.60;;;32.20;39.20;;;;;;5084763;28;20024;-60
2022/09/29 11:38:27;;;;;;;1.00;0.50;;;31.90;40.90;;;;;;5093405;28;20508;-62
2022/09/29 11:41:08;;;;;;;1.23;0.95;;;32.20;41.70;;;;;;5093177;28;20267;-63
2022/09/29 11:43:49;;;;;;;2.13;0.98;;;32.20;40.40;;;;;;5090394;28;20016;-63
2022/09/29 11:46:43;;;;;;;0.93;0.73;;;32.20;40.50;;;;;;5088031;28;20533;-60
2022/09/29 11:49:27;;;;;;;0.82;0.40;;;31.60;40.10;;;;;;5091610;28;20035;-61
2022/09/29 11:52:02;;;;;;;0.95;0.60;;;30.40;40.30;;;;;;5093278;28;20119;-60
2022/09/29 11:55:00;;;;;;;1.58;0.60;;;30.30;40.50;;;;;;5092718;28;20027;-60
2022/09/29 11:57:48;;;;;;;2.63;0.45;;;29.80;41.20;;;;;;5083490;28;20024;-62
2022/09/29 12:00:18;;;;;;;0.68;0.22;;;29.50;41.30;;;;;;5082653;28;20033;-61
2022/09/29 12:03:22;;;;;;;1.38;0.57;;;29.40;41.50;;;;;;5090327;28;20020;-60
2022/09/29 12:06:05;;;;;;;1.10;0.80;;;29.30;41.60;;;;;;5091256;28;20039;-61
2022/09/29 12:09:05;;;;;;;1.27;1.00;;;29.20;41.60;;;;;;5090750;28;20024;-61
2022/09/29 12:11:54;;;;;;;2.20;1.20;;;29.00;43.10;;;;;;5086357;28;20063;-61
2022/09/29 12:15:14;;;;;;;1.95;0.73;;;29.30;42.60;;;;;;5089280;28;20040;-63
2022/09/29 12:17:45;;;;;;;2.05;0.80;;;29.30;41.90;;;;;;5075367;28;20043;-63
2022/09/29 12:20:28;;;;;;;1.10;0.90;;;29.20;43.10;;;;;;5092293;28;20401;-62
2022/09/29 12:22:59;;;;;;;0.85;0.70;;;29.60;43.30;;;;;;5071430;28;20016;-62
2022/09/29 12:25:29;;;;;;;1.05;0.80;;;29.80;43.70;;;;;;5084935;28;20413;-60
2022/09/29 12:28:18;;;;;;;0.93;0.70;;;29.80;43.20;;;;;;5088089;28;20036;-62
2022/09/29 12:30:53;;;;;;;0.80;0.70;;;29.90;42.40;;;;;;5087642;28;20454;-60
2022/09/29 12:33:25;;;;;;;3.55;1.10;;;30.00;41.80;;;;;;5088121;28;20024;-62
2022/09/29 12:36:52;;;;;;;1.52;0.90;;;30.20;42.00;;;;;;5078956;28;20111;-63
2022/09/29 12:39:55;;;;;;;1.40;1.30;;;30.20;42.30;;;;;;5086306;28;20525;-61
2022/09/29 12:42:51;;;;;;;2.17;1.08;;;30.10;42.60;;;;;;5079726;28;20115;-59
2022/09/29 12:45:27;;;;;;;1.75;0.90;;;30.10;42.70;;;;;;5092312;28;20028;-63
2022/09/29 12:48:05;;;;;;;1.30;0.90;;;29.70;42.10;;;;;;5092996;28;20404;-61
2022/09/29 12:50:40;;;;;;;0.80;0.68;;;29.60;43.30;;;;;;5092333;28;20047;-61
2022/09/29 12:53:14;;;;;;;1.95;1.00;;;29.60;43.00;;;;;;5089170;28;20036;-61
2022/09/29 12:56:03;;;;;;;1.33;0.70;;;30.00;42.40;;;;;;5083350;28;20032;-59
2022/09/29 12:58:52;;;;;;;0.77;0.40;;;30.40;42.80;;;;;;5089966;28;20501;-60
2022/09/29 13:01:37;;;;;;;0.68;0.57;;;29.90;41.90;;;;;;5092165;28;20028;-62
2022/09/29 13:04:29;;;;;;;1.20;1.10;;;29.90;42.30;;;;;;5081307;28;20028;-62
2022/09/29 13:07:19;;;;;;;1.75;1.40;;;29.30;42.30;;;;;;5090938;28;20381;-63
2022/09/29 13:10:33;;;;;;;1.40;1.25;;;28.80;42.60;;;;;;5088834;28;20062;-62
2022/09/29 13:13:17;;;;;;;3.33;0.80;;;28.90;42.90;;;;;;5084840;28;20121;-62
2022/09/29 13:16:11;;;;;;;1.15;0.80;;;29.00;41.00;;;;;;5089709;28;20040;-62
2022/09/29 13:18:58;;;;;;;1.10;0.50;;;29.20;42.20;;;;;;5080365;28;20028;-63
2022/09/29 13:21:42;;;;;;;0.90;0.50;;;29.40;40.80;;;;;;5089502;28;20107;-61
2022/09/29 13:24:22;;;;;;;0.93;0.50;;;29.20;40.80;;;;;;5091255;28;20032;-62